createdAt,value
2023-01-10T00:03:08.931Z,99561.94
2023-01-10T00:07:10.918Z,99568.44
2023-01-10T00:11:31.775Z,99574.47
2023-01-10T00:15:34.403Z,99576.22
2023-01-10T00:19:36.389Z,99584.81
2023-01-10T00:23:38.481Z,99581.06
2023-01-10T00:27:40.662Z,99586.88
2023-01-10T00:31:42.730Z,99599.94
2023-01-10T00:35:44.647Z,99596.28
2023-01-10T00:39:46.622Z,99614.56
2023-01-10T00:43:57.643Z,99624.09
2023-01-10T00:47:59.331Z,99632.28
2023-01-10T00:52:01.373Z,99631.06
2023-01-10T00:56:03.422Z,99628.69
2023-01-10T01:00:09.186Z,99629.03
2023-01-10T01:04:11.235Z,99632.41
2023-01-10T01:08:14.937Z,99634.47
2023-01-10T01:12:16.967Z,99643.03
2023-01-10T01:16:19.592Z,99650.13
2023-01-10T01:20:21.754Z,99653.19
2023-01-10T01:24:24.939Z,99659.63
2023-01-10T01:28:27.482Z,99665.28
2023-01-10T01:32:29.423Z,99672.13
2023-01-10T01:36:31.521Z,99664.28
2023-01-10T01:40:33.606Z,99662.94
2023-01-10T01:44:39.652Z,99676.50
2023-01-10T01:48:44.054Z,99672.66
2023-01-10T01:52:50.721Z,99679.69
2023-01-10T01:56:57.626Z,99685.75
2023-01-10T02:01:00.165Z,99680.22
2023-01-10T02:05:08.582Z,99686.44
2023-01-10T02:09:33.193Z,99682.16
2023-01-10T02:13:40.118Z,99698.28
2023-01-10T02:17:42.434Z,99699.47
2023-01-10T02:22:28.943Z,99701.31
2023-01-10T02:26:55.915Z,99707.63
2023-01-10T02:31:13.083Z,99709.34
2023-01-10T02:35:24.030Z,99704.25
2023-01-10T02:39:38.275Z,99714.13
2023-01-10T02:43:48.658Z,99718.41
2023-01-10T02:47:50.816Z,99715.25
2023-01-10T02:51:52.682Z,99717.31
2023-01-10T02:56:08.778Z,99721.59
2023-01-10T03:00:31.310Z,99726.41
2023-01-10T03:04:51.987Z,99734.41
2023-01-10T03:09:07.387Z,99735.00
2023-01-10T03:13:23.115Z,99737.22
2023-01-10T03:17:28.038Z,99733.63
2023-01-10T03:21:33.395Z,99734.41
2023-01-10T03:25:38.039Z,99737.47
2023-01-10T03:30:03.016Z,99742.34
2023-01-10T03:34:05.656Z,99739.38
2023-01-10T03:38:20.864Z,99754.44
2023-01-10T03:43:00.391Z,99763.41
2023-01-10T03:47:14.141Z,99766.69
2023-01-10T03:51:18.828Z,99768.97
2023-01-10T03:55:24.711Z,99773.41
2023-01-10T03:59:28.330Z,99776.09
2023-01-10T04:03:30.347Z,99788.41
2023-01-10T04:07:32.403Z,99793.88
2023-01-10T04:11:34.432Z,99803.03
2023-01-10T04:15:36.721Z,99811.50
2023-01-10T04:19:38.837Z,99821.31
2023-01-10T04:23:40.961Z,99818.69
2023-01-10T04:27:43.026Z,99842.75
2023-01-10T04:31:44.982Z,99844.44
2023-01-10T04:35:48.567Z,99827.97
2023-01-10T04:39:50.615Z,99841.59
2023-01-10T04:43:52.574Z,99843.13
2023-01-10T04:47:56.302Z,99853.75
2023-01-10T04:51:58.494Z,99869.41
2023-01-10T04:56:05.631Z,99866.13
2023-01-10T05:00:09.216Z,99874.00
2023-01-10T05:04:11.284Z,99876.09
2023-01-10T05:08:13.160Z,99890.31
2023-01-10T05:12:15.482Z,99892.66
2023-01-10T05:16:18.182Z,99895.78
2023-01-10T05:20:20.207Z,99905.97
2023-01-10T05:24:22.455Z,99923.69
2023-01-10T05:28:24.708Z,99925.06
2023-01-10T05:32:29.756Z,99924.00
2023-01-10T05:36:32.215Z,99940.06
2023-01-10T05:40:34.217Z,99942.00
2023-01-10T05:44:36.107Z,99951.09
2023-01-10T05:48:38.253Z,99956.53
2023-01-10T05:52:40.373Z,99962.19
2023-01-10T05:56:42.945Z,99972.44
2023-01-10T06:00:44.885Z,99981.13
2023-01-10T06:04:46.887Z,99991.81
2023-01-10T06:08:48.491Z,99998.72
2023-01-10T06:12:50.665Z,100009.31
2023-01-10T06:16:52.731Z,100014.06
2023-01-10T06:20:54.718Z,100026.59
2023-01-10T06:24:56.711Z,100036.25
2023-01-10T06:28:59.589Z,100046.38
2023-01-10T06:33:02.773Z,100050.91
2023-01-10T06:37:04.967Z,100059.34
2023-01-10T06:41:13.192Z,100079.06
2023-01-10T06:45:15.367Z,100067.09
2023-01-10T06:49:17.377Z,100069.91
2023-01-10T06:53:19.327Z,100075.03
2023-01-10T06:57:21.333Z,100074.25
2023-01-10T07:01:23.433Z,100083.56
2023-01-10T07:05:25.616Z,100079.56
2023-01-10T07:09:28.529Z,100097.50
2023-01-10T07:13:30.534Z,100098.00
2023-01-10T07:17:32.595Z,100094.81
2023-01-10T07:21:34.862Z,100092.84
2023-01-10T07:25:36.972Z,100090.31
2023-01-10T07:29:39.122Z,100099.22
2023-01-10T07:33:41.092Z,100099.00
2023-01-10T07:37:43.209Z,100097.13
2023-01-10T07:41:47.575Z,100101.38
2023-01-10T07:45:50.882Z,100100.69
2023-01-10T07:49:52.843Z,100105.84
2023-01-10T07:53:54.885Z,100110.03
2023-01-10T07:57:57.098Z,100110.41
2023-01-10T08:01:59.386Z,100116.75
2023-01-10T08:06:03.703Z,100118.09
2023-01-10T08:10:06.810Z,100121.50
2023-01-10T08:14:08.939Z,100128.00
2023-01-10T08:18:11.085Z,100136.00
2023-01-10T08:22:13.122Z,100148.59
2023-01-10T08:26:15.054Z,100147.00
2023-01-10T08:30:17.224Z,100154.69
2023-01-10T08:34:19.564Z,100163.06
2023-01-10T08:38:21.490Z,100161.81
2023-01-10T08:42:23.583Z,100170.47
2023-01-10T08:46:25.594Z,100175.47
2023-01-10T08:50:27.951Z,100192.38
2023-01-10T08:54:29.905Z,100198.75
2023-01-10T08:58:31.879Z,100206.22
2023-01-10T09:02:33.918Z,100208.44
2023-01-10T09:06:36.722Z,100214.56
2023-01-10T09:10:38.723Z,100218.97
2023-01-10T09:14:40.696Z,100219.56
2023-01-10T09:18:42.710Z,100219.88
2023-01-10T09:22:44.705Z,100223.34
2023-01-10T09:26:46.667Z,100226.50
2023-01-10T09:30:48.643Z,100219.50
2023-01-10T09:34:50.574Z,100232.63
2023-01-10T09:38:52.623Z,100233.88
2023-01-10T09:43:18.791Z,100233.06
2023-01-10T09:47:35.835Z,100221.50
2023-01-10T09:51:39.420Z,100221.56
2023-01-10T09:55:42.491Z,100214.13
2023-01-10T09:59:45.719Z,100215.44
2023-01-10T10:04:05.750Z,100218.13
2023-01-10T10:08:16.837Z,100221.66
2023-01-10T10:12:30.476Z,100218.38
2023-01-10T10:17:10.995Z,100215.59
2023-01-10T10:21:19.858Z,100222.63
2023-01-10T10:25:30.895Z,100235.28
2023-01-10T10:30:14.439Z,100241.41
2023-01-10T10:34:29.418Z,100239.81
2023-01-10T10:38:37.323Z,100245.66
2023-01-10T10:42:43.056Z,100248.75
2023-01-10T10:46:45.333Z,100245.75
2023-01-10T10:50:56.883Z,100255.06
2023-01-10T10:54:59.002Z,100255.34
2023-01-10T10:59:01.200Z,100249.66
2023-01-10T11:03:21.654Z,100250.19
2023-01-10T11:07:25.559Z,100255.13
2023-01-10T11:11:31.949Z,100258.06
2023-01-10T11:15:40.821Z,100261.84
2023-01-10T11:19:54.645Z,100266.38
2023-01-10T11:23:57.385Z,100273.22
2023-01-10T11:28:01.298Z,100279.28
2023-01-10T11:32:15.364Z,100287.59
2023-01-10T11:36:18.377Z,100302.47
2023-01-10T11:40:20.663Z,100311.72
2023-01-10T11:44:26.330Z,100312.28
2023-01-10T11:53:38.019Z,100326.69
2023-01-10T11:57:40.143Z,100315.19
2023-01-10T12:01:48.187Z,100322.81
2023-01-10T12:05:53.082Z,100323.16
2023-01-10T12:10:03.545Z,100331.19
2023-01-10T12:14:19.797Z,100337.19
2023-01-10T12:18:21.903Z,100352.78
2023-01-10T12:22:39.161Z,100353.50
2023-01-10T12:26:42.584Z,100358.38
2023-01-10T12:30:50.257Z,100369.53
2023-01-10T12:35:01.708Z,100368.97
2023-01-10T12:39:16.245Z,100376.84
2023-01-10T12:43:44.037Z,100389.34
2023-01-10T12:47:55.048Z,100397.19
2023-01-10T12:52:03.919Z,100396.50
2023-01-10T12:56:10.895Z,100400.00
2023-01-10T13:00:37.644Z,100396.69
2023-01-10T13:04:44.951Z,100412.31
2023-01-10T13:08:47.183Z,100418.09
2023-01-10T13:13:36.735Z,100428.19
2023-01-10T13:18:05.314Z,100427.47
2023-01-10T13:22:21.013Z,100437.44
2023-01-10T13:26:23.211Z,100447.66
2023-01-10T13:30:33.120Z,100453.72
2023-01-10T13:34:36.356Z,100454.25
2023-01-10T13:38:51.338Z,100463.06
2023-01-10T13:43:34.368Z,100467.59
2023-01-10T13:47:39.450Z,100465.94
2023-01-10T13:52:20.267Z,100464.06
2023-01-10T13:56:40.809Z,100479.56
2023-01-10T14:01:09.001Z,100486.19
2023-01-10T14:05:18.441Z,100488.50
2023-01-10T14:09:20.434Z,100486.63
2023-01-10T14:13:23.030Z,100497.81
2023-01-10T14:17:29.135Z,100496.75
2023-01-10T14:21:36.078Z,100507.19
2023-01-10T14:25:39.094Z,100509.66
2023-01-10T14:29:47.681Z,100513.59
2023-01-10T14:33:49.840Z,100522.09
2023-01-10T14:37:56.423Z,100514.38
2023-01-10T14:42:01.511Z,100520.13
2023-01-10T14:46:12.432Z,100517.81
2023-01-10T14:50:30.155Z,100521.41
2023-01-10T14:54:32.073Z,100523.69
2023-01-10T14:58:34.129Z,100521.28
2023-01-10T15:02:39.178Z,100542.72
2023-01-10T15:07:00.125Z,100538.19
2023-01-10T15:11:06.596Z,100534.44
2023-01-10T15:15:17.067Z,100543.53
2023-01-10T15:19:21.971Z,100547.31
2023-01-10T15:23:27.312Z,100546.00
2023-01-10T15:27:30.983Z,100557.75
2023-01-10T15:31:37.596Z,100553.66
2023-01-10T15:35:40.232Z,100560.34
2023-01-10T15:39:47.085Z,100578.81
2023-01-10T15:43:54.329Z,100587.56
2023-01-10T15:48:03.816Z,100592.25
2023-01-10T15:52:20.986Z,100610.19
2023-01-10T15:56:40.780Z,100612.56
2023-01-10T16:00:45.796Z,100635.03
2023-01-10T16:04:50.137Z,100631.50
2023-01-10T16:08:57.887Z,100642.75
2023-01-10T16:13:31.726Z,100649.63
2023-01-10T16:17:33.715Z,100658.09
2023-01-10T16:21:42.130Z,100655.72
2023-01-10T16:25:47.151Z,100665.75
2023-01-10T16:29:49.152Z,100656.03
2023-01-10T16:33:51.730Z,100654.25
2023-01-10T16:37:56.202Z,100664.16
2023-01-10T16:42:16.696Z,100659.78
2023-01-10T16:46:18.748Z,100659.66
2023-01-10T16:50:20.832Z,100664.94
2023-01-10T16:54:25.407Z,100652.34
2023-01-10T16:58:27.308Z,100649.84
2023-01-10T17:02:29.326Z,100655.19
2023-01-10T17:06:31.364Z,100641.41
2023-01-10T17:10:35.534Z,100648.38
2023-01-10T17:14:38.735Z,100664.13
2023-01-10T17:18:40.725Z,100674.50
2023-01-10T17:22:42.912Z,100674.66
2023-01-10T17:26:45.066Z,100680.47
2023-01-10T17:30:46.999Z,100685.19
2023-01-10T17:34:49.005Z,100685.84
2023-01-10T17:38:50.942Z,100685.31
2023-01-10T17:42:52.881Z,100695.22
2023-01-10T17:46:56.918Z,100699.59
2023-01-10T17:51:00.569Z,100699.19
2023-01-10T17:55:03.522Z,100715.81
2023-01-10T17:59:05.528Z,100717.22
2023-01-10T18:03:08.641Z,100719.59
2023-01-10T18:07:13.006Z,100717.06
2023-01-10T18:11:15.119Z,100717.97
2023-01-10T18:15:17.141Z,100727.38
2023-01-10T18:19:19.078Z,100740.59
2023-01-10T18:23:21.353Z,100739.13
2023-01-10T18:27:24.958Z,100745.13
2023-01-10T18:31:27.094Z,100736.66
2023-01-10T18:35:30.222Z,100730.38
2023-01-10T18:39:32.066Z,100738.44
2023-01-10T18:43:34.164Z,100760.25
2023-01-10T18:47:36.208Z,100767.34
2023-01-10T18:51:38.190Z,100779.75
2023-01-10T18:55:40.187Z,100781.38
2023-01-10T18:59:41.884Z,100786.38
2023-01-10T19:03:44.583Z,100789.22
2023-01-10T19:07:46.993Z,100783.00
2023-01-10T19:11:49.272Z,100785.66
2023-01-10T19:15:51.408Z,100789.41
2023-01-10T19:19:54.471Z,100794.56
2023-01-10T19:24:01.753Z,100790.91
2023-01-10T19:28:04.550Z,100802.94
2023-01-10T19:32:06.603Z,100814.00
2023-01-10T19:36:08.784Z,100821.09
2023-01-10T19:40:12.280Z,100815.69
2023-01-10T19:44:16.552Z,100817.63
2023-01-10T19:48:18.511Z,100813.41
2023-01-10T19:52:20.266Z,100814.44
2023-01-10T19:56:23.204Z,100812.72
2023-01-10T20:00:25.256Z,100824.28
2023-01-10T20:04:27.237Z,100821.59
2023-01-10T20:08:29.284Z,100823.91
2023-01-10T20:12:31.158Z,100836.88
2023-01-10T20:16:34.045Z,100833.25
2023-01-10T20:20:36.011Z,100835.78
2023-01-10T20:24:38.143Z,100841.81
2023-01-10T20:28:41.508Z,100853.81
2023-01-10T20:32:43.252Z,100847.84
2023-01-10T20:36:46.708Z,100846.31
2023-01-10T20:40:48.755Z,100831.75
2023-01-10T20:44:50.480Z,100845.78
2023-01-10T20:48:53.839Z,100841.34
2023-01-10T20:52:55.777Z,100850.84
2023-01-10T20:56:57.815Z,100851.53
2023-01-10T21:00:59.739Z,100845.75
2023-01-10T21:05:01.707Z,100836.47
2023-01-10T21:09:05.053Z,100833.25
2023-01-10T21:13:07.026Z,100855.78
2023-01-10T21:17:09.107Z,100858.13
2023-01-10T21:21:12.957Z,100851.75
2023-01-10T21:25:14.963Z,100855.72
2023-01-10T21:29:17.173Z,100853.03
2023-01-10T21:33:19.131Z,100852.56
2023-01-10T21:37:21.143Z,100853.38
2023-01-10T21:41:41.969Z,100865.91
2023-01-10T21:45:43.972Z,100876.03
2023-01-10T21:49:45.911Z,100873.63
2023-01-10T21:53:47.913Z,100881.53
2023-01-10T21:57:49.893Z,100890.13
2023-01-10T22:01:51.828Z,100904.41
2023-01-10T22:05:53.972Z,100906.22
2023-01-10T22:09:56.055Z,100914.78
2023-01-10T22:13:57.997Z,100930.84
2023-01-10T22:18:01.247Z,100934.19
2023-01-10T22:22:03.457Z,100938.66
2023-01-10T22:26:09.592Z,100941.44
2023-01-10T22:30:12.007Z,100943.22
2023-01-10T22:34:14.113Z,100956.09
2023-01-10T22:38:16.118Z,100953.53
2023-01-10T22:42:17.867Z,100959.56
2023-01-10T22:46:20.609Z,100956.09
2023-01-10T22:50:22.770Z,100955.16
2023-01-10T22:54:24.699Z,100954.38
2023-01-10T22:58:27.381Z,100956.13
2023-01-10T23:02:29.306Z,100952.00
2023-01-10T23:06:31.625Z,100949.91
2023-01-10T23:10:33.862Z,100953.78
2023-01-10T23:14:36.598Z,100960.63
2023-01-10T23:18:39.077Z,100962.25
2023-01-10T23:22:41.068Z,100960.31
2023-01-10T23:26:42.978Z,100972.66
2023-01-10T23:30:44.956Z,100976.25
2023-01-10T23:34:46.659Z,100978.94
2023-01-10T23:38:48.659Z,100993.38
2023-01-10T23:42:50.595Z,101003.66
2023-01-10T23:46:52.338Z,101006.16
2023-01-10T23:50:54.237Z,100999.06
2023-01-10T23:54:56.413Z,101001.47
2023-01-10T23:58:58.416Z,100990.34
